createdAt,value
2017-10-09T00:00:09.353Z,20.62
2017-10-09T00:02:37.600Z,18.92
2017-10-09T00:05:05.135Z,24.10
2017-10-09T00:07:32.688Z,23.67
2017-10-09T00:10:00.263Z,24.67
2017-10-09T00:12:28.204Z,19.48
2017-10-09T00:14:55.745Z,16.25
2017-10-09T00:17:23.299Z,16.23
2017-10-09T00:19:50.845Z,18.62
2017-10-09T00:22:18.394Z,18.40
2017-10-09T00:24:45.921Z,16.50
2017-10-09T00:27:13.476Z,16.98
2017-10-09T00:29:41.426Z,20.08
2017-10-09T00:32:08.962Z,17.73
2017-10-09T00:34:36.513Z,15.75
2017-10-09T00:37:04.055Z,15.60
2017-10-09T00:39:31.611Z,15.13
2017-10-09T00:41:59.163Z,14.80
2017-10-09T00:44:26.712Z,12.23
2017-10-09T00:46:54.237Z,10.23
2017-10-09T00:49:21.798Z,11.77
2017-10-09T00:51:49.332Z,12.50
2017-10-09T00:54:16.893Z,12.57
2017-10-09T00:56:44.418Z,12.02
2017-10-09T00:59:11.943Z,13.88
2017-10-09T01:01:39.506Z,17.67
2017-10-09T01:04:07.036Z,13.48
2017-10-09T01:06:34.581Z,13.40
2017-10-09T01:09:02.108Z,11.25
2017-10-09T01:11:30.039Z,16.62
2017-10-09T01:13:57.573Z,16.70
2017-10-09T01:16:25.141Z,14.48
2017-10-09T01:18:52.669Z,14.35
2017-10-09T01:21:20.221Z,14.45
2017-10-09T01:23:47.741Z,12.13
2017-10-09T01:26:15.672Z,10.20
2017-10-09T01:28:43.209Z,13.25
2017-10-09T01:31:10.772Z,9.35
2017-10-09T01:33:38.324Z,12.10
2017-10-09T01:36:05.878Z,10.13
2017-10-09T01:38:33.432Z,11.90
2017-10-09T01:41:00.994Z,13.00
2017-10-09T01:43:28.618Z,10.05
2017-10-09T01:45:56.535Z,8.98
2017-10-09T01:48:24.079Z,11.35
2017-10-09T01:50:51.633Z,10.82
2017-10-09T01:53:19.553Z,10.93
2017-10-09T01:55:47.107Z,10.55
2017-10-09T01:58:14.638Z,11.05
2017-10-09T02:00:42.172Z,11.68
2017-10-09T02:03:09.703Z,13.38
2017-10-09T02:05:37.249Z,13.55
2017-10-09T02:08:04.778Z,11.40
2017-10-09T02:10:32.346Z,8.25
2017-10-09T02:12:59.868Z,9.15
2017-10-09T02:15:27.432Z,10.18
2017-10-09T02:17:54.969Z,8.10
2017-10-09T02:20:22.791Z,8.25
2017-10-09T02:22:50.360Z,10.25
2017-10-09T02:25:17.894Z,10.68
2017-10-09T02:27:45.437Z,12.63
2017-10-09T02:30:12.981Z,16.83
2017-10-09T02:32:40.523Z,11.00
2017-10-09T02:35:08.052Z,10.55
2017-10-09T02:37:35.596Z,8.73
2017-10-09T02:40:03.146Z,10.25
2017-10-09T02:42:30.710Z,10.00
2017-10-09T02:44:58.252Z,11.00
2017-10-09T02:47:25.787Z,10.50
2017-10-09T02:49:53.332Z,9.25
2017-10-09T02:52:20.897Z,12.43
2017-10-09T02:54:48.447Z,10.02
2017-10-09T02:57:15.972Z,8.98
2017-10-09T02:59:43.534Z,12.15
2017-10-09T03:02:11.064Z,7.07
2017-10-09T03:04:38.595Z,8.60
2017-10-09T03:07:06.544Z,11.15
2017-10-09T03:09:34.061Z,8.95
2017-10-09T03:12:02.009Z,9.18
2017-10-09T03:14:29.544Z,11.77
2017-10-09T03:16:57.084Z,8.18
2017-10-09T03:19:25.009Z,9.13
2017-10-09T03:21:52.556Z,11.60
2017-10-09T03:24:21.009Z,9.63
2017-10-09T03:27:03.428Z,9.00
2017-10-09T03:29:36.685Z,8.05
2017-10-09T03:32:04.248Z,9.98
2017-10-09T03:34:31.789Z,8.57
2017-10-09T03:36:59.741Z,10.23
2017-10-09T03:39:27.266Z,12.23
2017-10-09T03:41:54.796Z,12.10
2017-10-09T03:44:22.348Z,11.48
2017-10-09T03:46:49.875Z,10.05
2017-10-09T03:49:17.429Z,11.15
2017-10-09T03:51:45.347Z,8.95
2017-10-09T03:54:12.909Z,9.48
2017-10-09T03:56:40.436Z,11.35
2017-10-09T03:59:07.978Z,15.15
2017-10-09T04:01:35.533Z,12.10
2017-10-09T04:04:03.063Z,13.62
2017-10-09T04:06:31.006Z,12.25
2017-10-09T04:08:58.525Z,10.48
2017-10-09T04:11:26.078Z,11.40
2017-10-09T04:13:53.601Z,9.27
2017-10-09T04:16:23.323Z,10.27
2017-10-09T04:18:50.948Z,11.02
2017-10-09T04:21:18.495Z,9.85
2017-10-09T04:23:46.032Z,9.95
2017-10-09T04:26:13.571Z,10.38
2017-10-09T04:28:41.131Z,9.48
2017-10-09T04:31:09.056Z,10.27
2017-10-09T04:33:36.609Z,9.15
2017-10-09T04:36:04.142Z,8.32
2017-10-09T04:38:31.731Z,8.32
2017-10-09T04:40:59.671Z,7.28
2017-10-09T04:43:27.194Z,9.07
2017-10-09T04:45:54.728Z,15.18
2017-10-09T04:48:22.256Z,12.85
2017-10-09T04:50:50.092Z,20.27
2017-10-09T04:53:17.631Z,19.70
2017-10-09T04:55:45.195Z,24.70
2017-10-09T04:58:12.711Z,33.72
2017-10-09T05:00:40.305Z,38.72
2017-10-09T05:03:08.256Z,40.70
2017-10-09T05:05:35.793Z,39.35
2017-10-09T05:08:03.337Z,42.53
2017-10-09T05:10:30.865Z,42.10
2017-10-09T05:12:58.405Z,45.65
2017-10-09T05:15:25.936Z,37.85
2017-10-09T05:17:53.886Z,46.13
2017-10-09T05:20:21.415Z,39.92
2017-10-09T05:22:48.963Z,33.45
2017-10-09T05:25:16.499Z,37.60
2017-10-09T05:27:44.021Z,27.27
2017-10-09T05:30:11.592Z,28.92
2017-10-09T05:32:39.122Z,33.33
2017-10-09T05:35:06.670Z,22.20
2017-10-09T05:37:34.223Z,33.13
2017-10-09T05:40:01.769Z,39.67
2017-10-09T05:42:29.304Z,31.83
2017-10-09T05:44:56.829Z,34.22
2017-10-09T05:47:24.382Z,39.83
2017-10-09T05:49:51.930Z,41.92
2017-10-09T05:52:19.880Z,39.40
2017-10-09T05:54:47.417Z,40.53
2017-10-09T05:57:14.956Z,43.65
2017-10-09T05:59:42.487Z,47.08
2017-10-09T06:02:10.031Z,47.05
2017-10-09T06:04:37.567Z,42.95
2017-10-09T06:07:05.106Z,48.53
2017-10-09T06:09:32.630Z,51.70
2017-10-09T06:12:00.582Z,68.25
2017-10-09T06:14:28.109Z,43.87
2017-10-09T06:16:55.639Z,38.63
2017-10-09T06:19:23.585Z,48.90
2017-10-09T06:21:51.110Z,39.47
2017-10-09T06:24:18.656Z,46.28
2017-10-09T06:26:46.181Z,45.45
2017-10-09T06:29:13.718Z,68.18
2017-10-09T06:31:41.641Z,66.85
2017-10-09T06:34:09.201Z,48.10
2017-10-09T06:36:36.731Z,65.65
2017-10-09T06:39:04.683Z,49.13
2017-10-09T06:41:32.214Z,54.15
2017-10-09T06:43:59.747Z,52.75
2017-10-09T06:46:27.695Z,55.97
2017-10-09T06:48:55.246Z,58.15
2017-10-09T06:51:22.801Z,50.53
2017-10-09T06:53:50.324Z,54.40
2017-10-09T06:56:17.871Z,52.72
2017-10-09T06:58:45.418Z,75.40
2017-10-09T07:01:12.982Z,58.53
2017-10-09T07:03:40.521Z,60.60
2017-10-09T07:06:08.077Z,52.58
2017-10-09T07:08:35.632Z,58.85
2017-10-09T07:11:03.196Z,47.90
2017-10-09T07:13:30.728Z,37.47
2017-10-09T07:15:58.263Z,42.35
2017-10-09T07:18:25.813Z,37.03
2017-10-09T07:20:53.369Z,36.70
2017-10-09T07:23:20.920Z,33.97
2017-10-09T07:25:48.473Z,32.78
2017-10-09T07:28:16.032Z,31.08
2017-10-09T07:30:43.562Z,37.00
2017-10-09T07:33:11.109Z,33.92
2017-10-09T07:35:38.649Z,31.48
2017-10-09T07:38:06.169Z,26.25
2017-10-09T07:40:33.778Z,30.42
2017-10-09T07:43:01.302Z,31.27
2017-10-09T07:45:28.851Z,31.45
2017-10-09T07:47:56.780Z,37.38
2017-10-09T07:50:24.328Z,37.28
2017-10-09T07:52:51.883Z,33.08
2017-10-09T07:55:19.462Z,29.42
2017-10-09T07:57:47.058Z,34.13
2017-10-09T08:00:14.627Z,36.47
2017-10-09T08:02:42.187Z,32.53
2017-10-09T08:05:09.731Z,40.30
2017-10-09T08:07:37.292Z,31.75
2017-10-09T08:10:05.212Z,32.45
2017-10-09T08:12:32.750Z,30.98
2017-10-09T08:15:00.676Z,29.52
2017-10-09T08:17:28.228Z,27.25
2017-10-09T08:19:55.766Z,28.33
2017-10-09T08:22:23.721Z,27.35
2017-10-09T08:24:51.258Z,28.48
2017-10-09T08:27:18.802Z,29.40
2017-10-09T08:29:46.349Z,31.15
2017-10-09T08:32:13.883Z,29.30
2017-10-09T08:34:41.432Z,27.87
2017-10-09T08:37:08.962Z,25.55
2017-10-09T08:39:36.524Z,23.77
2017-10-09T08:42:04.057Z,29.98
2017-10-09T08:44:31.600Z,30.55
2017-10-09T08:46:59.539Z,29.42
2017-10-09T08:49:27.083Z,30.70
2017-10-09T08:51:54.622Z,34.70
2017-10-09T08:54:22.575Z,33.65
2017-10-09T08:56:50.113Z,32.15
2017-10-09T08:59:17.699Z,33.55
2017-10-09T09:01:45.257Z,36.63
2017-10-09T09:04:12.793Z,31.55
2017-10-09T09:06:40.348Z,39.17
2017-10-09T09:09:07.876Z,40.75
2017-10-09T09:11:35.426Z,38.85
2017-10-09T09:14:02.958Z,38.78
2017-10-09T09:16:30.507Z,39.67
2017-10-09T09:18:58.053Z,34.47
2017-10-09T09:21:25.605Z,40.33
2017-10-09T09:23:53.177Z,35.88
2017-10-09T09:26:20.746Z,42.65
2017-10-09T09:28:48.288Z,31.10
2017-10-09T09:31:15.829Z,33.65
2017-10-09T09:33:43.380Z,34.08
2017-10-09T09:36:10.918Z,40.80
2017-10-09T09:38:38.868Z,40.88
2017-10-09T09:41:06.416Z,40.83
2017-10-09T09:43:33.972Z,36.30
2017-10-09T09:46:01.523Z,33.70
2017-10-09T09:48:29.075Z,30.52
2017-10-09T09:50:57.014Z,32.15
2017-10-09T09:53:24.576Z,32.28
2017-10-09T09:55:52.114Z,28.10
2017-10-09T09:58:19.647Z,28.87
2017-10-09T10:00:47.212Z,27.77
2017-10-09T10:03:14.754Z,33.20
2017-10-09T10:05:42.314Z,32.88
2017-10-09T10:08:09.861Z,21.95
2017-10-09T10:10:37.825Z,31.85
2017-10-09T10:13:05.361Z,30.08
2017-10-09T10:15:32.944Z,26.48
2017-10-09T10:18:00.476Z,29.63
2017-10-09T10:20:28.064Z,28.05
2017-10-09T10:22:55.612Z,25.48
2017-10-09T10:25:23.549Z,30.10
2017-10-09T10:27:51.113Z,32.65
2017-10-09T10:30:18.689Z,31.35
2017-10-09T10:32:46.260Z,32.42
2017-10-09T10:35:13.850Z,33.67
2017-10-09T10:37:41.420Z,38.47
2017-10-09T10:40:09.416Z,39.78
2017-10-09T10:42:36.994Z,34.25
2017-10-09T10:45:04.955Z,37.00
2017-10-09T10:47:32.498Z,40.40
2017-10-09T10:50:00.046Z,29.10
2017-10-09T10:52:27.588Z,50.92
2017-10-09T10:54:55.140Z,37.63
2017-10-09T10:57:22.686Z,40.83
2017-10-09T10:59:50.251Z,39.10
2017-10-09T11:02:17.798Z,38.78
2017-10-09T11:04:45.366Z,36.10
2017-10-09T11:07:12.929Z,41.60
2017-10-09T11:09:40.465Z,40.38
2017-10-09T11:12:08.026Z,41.13
2017-10-09T11:14:35.567Z,41.70
2017-10-09T11:17:03.150Z,41.85
2017-10-09T11:19:30.690Z,42.85
2017-10-09T11:21:58.260Z,44.05
2017-10-09T11:24:25.798Z,45.50
2017-10-09T11:26:53.346Z,43.70
2017-10-09T11:29:20.896Z,50.00
2017-10-09T11:31:48.441Z,51.10
2017-10-09T11:34:16.017Z,38.03
2017-10-09T11:36:43.561Z,43.80
2017-10-09T11:39:11.122Z,53.85
2017-10-09T11:41:38.664Z,47.55
2017-10-09T11:44:06.227Z,50.38
2017-10-09T11:46:33.765Z,54.97
2017-10-09T11:49:01.721Z,58.00
2017-10-09T11:51:29.278Z,57.05
2017-10-09T11:53:56.857Z,58.05
2017-10-09T11:56:24.402Z,52.72
2017-10-09T11:58:51.941Z,42.95
2017-10-09T12:01:19.524Z,44.70
2017-10-09T12:03:47.068Z,48.78
2017-10-09T12:06:15.062Z,45.70
2017-10-09T12:08:42.595Z,48.65
2017-10-09T12:11:10.165Z,44.70
2017-10-09T12:13:37.709Z,46.85
2017-10-09T12:16:05.257Z,45.00
2017-10-09T12:18:32.816Z,49.70
2017-10-09T12:21:00.752Z,41.80
2017-10-09T12:23:28.303Z,38.55
2017-10-09T12:25:55.833Z,42.72
2017-10-09T12:28:23.803Z,38.10
2017-10-09T12:30:51.744Z,43.65
2017-10-09T12:33:19.276Z,39.50
2017-10-09T12:35:46.841Z,35.90
2017-10-09T12:38:14.772Z,37.67
2017-10-09T12:40:42.326Z,30.43
2017-10-09T12:43:09.870Z,35.00
2017-10-09T12:45:37.814Z,27.35
2017-10-09T12:48:05.359Z,31.07
2017-10-09T12:50:32.912Z,40.97
2017-10-09T12:53:00.444Z,35.30
2017-10-09T12:55:28.019Z,41.97
2017-10-09T12:57:55.954Z,36.70
2017-10-09T13:00:23.485Z,35.90
2017-10-09T13:02:51.450Z,33.25
2017-10-09T13:05:18.990Z,34.53
2017-10-09T13:07:46.527Z,32.63
2017-10-09T13:10:14.060Z,33.13
2017-10-09T13:12:41.609Z,38.50
2017-10-09T13:15:09.150Z,31.15
2017-10-09T13:17:36.708Z,37.27
2017-10-09T13:20:04.242Z,34.60
2017-10-09T13:22:31.784Z,36.77
2017-10-09T13:24:59.324Z,36.57
2017-10-09T13:27:26.895Z,36.97
2017-10-09T13:29:54.432Z,37.58
2017-10-09T13:32:21.978Z,39.67
2017-10-09T13:34:49.532Z,39.50
2017-10-09T13:37:17.074Z,40.88
2017-10-09T13:39:45.022Z,41.80
2017-10-09T13:42:12.551Z,40.30
2017-10-09T13:44:40.110Z,41.00
2017-10-09T13:47:07.645Z,41.87
2017-10-09T13:49:35.186Z,42.10
2017-10-09T13:52:02.729Z,38.83
2017-10-09T13:54:30.285Z,42.88
2017-10-09T13:56:57.837Z,39.75
2017-10-09T13:59:25.400Z,41.70
2017-10-09T14:01:53.382Z,40.25
2017-10-09T14:04:21.377Z,34.30
2017-10-09T14:06:48.959Z,39.87
2017-10-09T14:09:16.521Z,38.20
2017-10-09T14:11:44.133Z,33.83
2017-10-09T14:14:11.676Z,38.10
2017-10-09T14:16:39.244Z,38.85
2017-10-09T14:19:06.788Z,37.45
2017-10-09T14:21:34.364Z,39.20
2017-10-09T14:24:01.920Z,37.15
2017-10-09T14:26:29.489Z,37.47
2017-10-09T14:28:57.044Z,41.10
2017-10-09T14:41:15.506Z,59.13
2017-10-09T14:43:43.074Z,52.08
2017-10-09T14:46:10.612Z,53.22
2017-10-09T14:48:38.165Z,53.92
2017-10-09T14:51:05.783Z,53.53
2017-10-09T14:53:33.288Z,58.42
2017-10-09T14:56:00.834Z,60.40
2017-10-09T14:58:28.372Z,60.60
2017-10-09T15:00:56.341Z,49.37
2017-10-09T15:03:23.871Z,56.73
2017-10-09T15:05:51.443Z,64.33
2017-10-09T15:08:18.994Z,52.03
2017-10-09T15:10:46.525Z,59.50
2017-10-09T15:13:14.098Z,58.05
2017-10-09T15:15:41.640Z,56.07
2017-10-09T15:18:09.202Z,55.42
2017-10-09T15:20:36.753Z,63.97
2017-10-09T15:23:04.315Z,63.87
2017-10-09T15:25:31.862Z,66.95
2017-10-09T15:27:59.842Z,64.78
2017-10-09T15:30:27.790Z,59.50
2017-10-09T15:32:55.331Z,52.20
2017-10-09T15:35:22.896Z,61.13
2017-10-09T15:37:50.443Z,60.00
2017-10-09T15:40:18.395Z,64.97
2017-10-09T15:42:45.941Z,61.72
2017-10-09T15:45:13.523Z,51.85
2017-10-09T15:47:41.055Z,58.00
2017-10-09T15:50:09.033Z,64.63
2017-10-09T15:52:37.550Z,59.58
2017-10-09T15:55:05.102Z,53.50
2017-10-09T15:57:32.667Z,54.97
2017-10-09T16:00:00.600Z,55.35
2017-10-09T16:02:28.167Z,55.12
2017-10-09T16:04:55.731Z,52.53
2017-10-09T16:07:23.290Z,61.00
2017-10-09T16:09:50.855Z,55.78
2017-10-09T16:12:18.434Z,57.40
2017-10-09T16:14:45.992Z,67.65
2017-10-09T16:17:13.534Z,61.65
2017-10-09T16:19:41.085Z,73.65
2017-10-09T16:22:08.629Z,63.58
2017-10-09T16:24:36.179Z,62.83
2017-10-09T16:27:03.743Z,60.60
2017-10-09T16:29:31.318Z,55.83
2017-10-09T16:31:58.845Z,59.85
2017-10-09T16:34:26.437Z,67.07
2017-10-09T16:36:53.979Z,52.30
2017-10-09T16:39:21.544Z,55.80
2017-10-09T16:41:49.225Z,53.83
2017-10-09T16:44:16.780Z,57.00
2017-10-09T16:46:44.345Z,57.85
2017-10-09T16:49:11.894Z,57.62
2017-10-09T16:51:39.674Z,68.12
2017-10-09T16:54:07.271Z,61.97
2017-10-09T16:56:36.230Z,64.00
2017-10-09T16:59:04.221Z,66.30
2017-10-09T17:01:31.827Z,62.38
2017-10-09T17:03:59.385Z,54.55
2017-10-09T17:06:27.889Z,50.38
2017-10-09T17:08:55.485Z,55.45
2017-10-09T17:11:23.033Z,54.78
2017-10-09T17:13:50.910Z,52.70
2017-10-09T17:16:18.556Z,53.23
2017-10-09T17:18:46.608Z,55.92
2017-10-09T17:21:14.171Z,54.70
2017-10-09T17:23:42.464Z,71.37
2017-10-09T17:26:10.059Z,59.85
2017-10-09T17:28:37.727Z,56.28
2017-10-09T17:31:05.302Z,59.63
2017-10-09T17:33:32.923Z,63.08
2017-10-09T17:36:00.514Z,59.63
2017-10-09T17:38:28.250Z,58.60
2017-10-09T17:40:55.846Z,53.40
2017-10-09T17:43:23.425Z,61.67
2017-10-09T17:45:50.979Z,57.65
2017-10-09T17:48:18.547Z,65.30
2017-10-09T17:50:46.108Z,56.95
2017-10-09T17:53:13.670Z,51.65
2017-10-09T17:55:41.216Z,64.82
2017-10-09T17:58:08.805Z,54.97
2017-10-09T18:00:36.747Z,55.50
2017-10-09T18:03:04.347Z,52.03
2017-10-09T18:05:31.908Z,64.60
2017-10-09T18:07:59.462Z,65.55
2017-10-09T18:10:27.018Z,65.03
2017-10-09T18:12:54.555Z,61.97
2017-10-09T18:15:22.506Z,55.63
2017-10-09T18:17:50.038Z,56.03
2017-10-09T18:20:17.569Z,58.47
2017-10-09T18:22:45.141Z,59.53
2017-10-09T18:25:13.086Z,60.00
2017-10-09T18:27:40.634Z,61.45
2017-10-09T18:30:08.169Z,54.55
2017-10-09T18:32:36.447Z,66.20
2017-10-09T18:35:04.378Z,58.03
2017-10-09T18:37:31.945Z,50.63
2017-10-09T18:39:59.473Z,59.20
2017-10-09T18:42:27.009Z,56.90
2017-10-09T18:44:54.580Z,54.67
2017-10-09T18:47:22.112Z,57.00
2017-10-09T18:49:49.669Z,58.35
2017-10-09T18:52:17.615Z,51.33
2017-10-09T18:54:45.214Z,52.40
2017-10-09T18:57:12.837Z,53.40
2017-10-09T18:59:40.450Z,61.58
2017-10-09T19:02:08.034Z,53.30
2017-10-09T19:04:35.970Z,54.83
2017-10-09T19:07:03.710Z,53.00
2017-10-09T19:09:31.244Z,50.58
2017-10-09T19:11:59.062Z,56.03
2017-10-09T19:14:26.596Z,51.28
2017-10-09T19:16:54.156Z,56.58
2017-10-09T19:19:21.709Z,58.40
2017-10-09T19:21:49.297Z,60.80
2017-10-09T19:24:16.840Z,53.42
2017-10-09T19:26:44.481Z,57.13
2017-10-09T19:29:12.427Z,64.28
2017-10-09T19:31:40.004Z,56.25
2017-10-09T19:34:07.581Z,72.55
2017-10-09T19:36:35.269Z,59.42
2017-10-09T19:39:03.215Z,74.95
2017-10-09T19:41:30.890Z,56.78
2017-10-09T19:43:58.434Z,63.42
2017-10-09T19:46:25.980Z,70.00
2017-10-09T19:48:53.579Z,61.25
2017-10-09T19:51:21.156Z,61.95
2017-10-09T19:53:48.708Z,63.33
2017-10-09T19:56:16.390Z,53.50
2017-10-09T19:58:43.956Z,60.35
2017-10-09T20:01:11.665Z,63.53
2017-10-09T20:03:39.216Z,61.78
2017-10-09T20:06:06.921Z,55.97
2017-10-09T20:08:34.462Z,62.42
2017-10-09T20:11:02.144Z,62.13
2017-10-09T20:13:29.677Z,67.50
2017-10-09T20:15:57.649Z,60.05
2017-10-09T20:18:25.580Z,63.30
2017-10-09T20:20:53.134Z,61.97
2017-10-09T20:23:20.714Z,77.35
2017-10-09T20:25:48.260Z,58.47
2017-10-09T20:28:15.811Z,59.80
2017-10-09T20:30:43.748Z,66.93
2017-10-09T20:33:12.126Z,62.03
2017-10-09T20:35:39.675Z,57.80
2017-10-09T20:38:07.236Z,61.58
2017-10-09T20:40:35.181Z,60.05
2017-10-09T20:43:02.769Z,54.30
2017-10-09T20:45:30.305Z,68.00
2017-10-09T20:47:57.876Z,51.53
2017-10-09T20:50:25.450Z,62.40
2017-10-09T20:52:52.982Z,56.35
2017-10-09T20:55:20.940Z,57.88
2017-10-09T20:57:48.886Z,54.88
2017-10-09T21:00:16.430Z,57.35
2017-10-09T21:02:43.973Z,56.88
2017-10-09T21:05:11.938Z,62.60
2017-10-09T21:07:39.524Z,60.03
2017-10-09T21:10:07.128Z,63.13
2017-10-09T21:12:34.687Z,65.00
2017-10-09T21:15:02.236Z,68.55
2017-10-09T21:17:30.205Z,55.25
2017-10-09T21:19:57.734Z,55.47
2017-10-09T21:22:25.298Z,73.60
2017-10-09T21:24:53.247Z,60.50
2017-10-09T21:27:21.200Z,57.95
2017-10-09T21:29:48.743Z,62.15
2017-10-09T21:32:16.292Z,61.22
2017-10-09T21:34:43.830Z,57.20
2017-10-09T21:37:11.394Z,55.15
2017-10-09T21:39:38.925Z,55.03
2017-10-09T21:42:06.475Z,56.53
2017-10-09T21:44:34.048Z,63.75
2017-10-09T21:47:01.589Z,60.12
2017-10-09T21:49:29.142Z,64.82
2017-10-09T21:51:56.709Z,67.50
2017-10-09T21:54:24.281Z,65.25
2017-10-09T21:56:51.813Z,69.05
2017-10-09T21:59:19.365Z,70.72
2017-10-09T22:01:47.307Z,64.80
2017-10-09T22:04:14.867Z,65.07
2017-10-09T22:06:42.403Z,66.55
2017-10-09T22:09:09.937Z,59.40
2017-10-09T22:11:37.497Z,62.67
2017-10-09T22:14:05.046Z,60.65
2017-10-09T22:16:32.592Z,66.78
2017-10-09T22:19:00.126Z,62.88
2017-10-09T22:21:27.677Z,50.78
2017-10-09T22:23:55.202Z,56.08
2017-10-09T22:26:22.779Z,51.33
2017-10-09T22:28:50.314Z,55.92
2017-10-09T22:31:17.857Z,58.50
2017-10-09T22:33:45.423Z,65.78
2017-10-09T22:36:12.988Z,54.17
2017-10-09T22:38:40.545Z,59.25
2017-10-09T22:41:08.086Z,62.45
2017-10-09T22:43:36.035Z,59.10
2017-10-09T22:46:03.573Z,58.55
2017-10-09T22:51:04.029Z,57.47
2017-10-09T22:53:31.571Z,58.00
2017-10-09T22:55:59.524Z,45.17
2017-10-09T22:58:27.057Z,48.87
2017-10-09T23:00:54.609Z,47.42
2017-10-09T23:03:22.541Z,47.10
2017-10-09T23:05:50.095Z,54.00
2017-10-09T23:08:17.641Z,45.33
2017-10-09T23:10:45.187Z,37.40
2017-10-09T23:13:12.766Z,43.63
2017-10-09T23:15:40.700Z,38.83
2017-10-09T23:18:08.258Z,46.40
2017-10-09T23:20:35.811Z,40.72
2017-10-09T23:23:03.383Z,41.25
2017-10-09T23:25:30.916Z,39.80
2017-10-09T23:27:58.478Z,37.00
2017-10-09T23:30:26.027Z,37.47
2017-10-09T23:32:53.568Z,36.42
2017-10-09T23:35:21.124Z,39.90
2017-10-09T23:37:49.051Z,37.05
2017-10-09T23:40:16.607Z,38.80
2017-10-09T23:42:44.166Z,32.55
2017-10-09T23:45:11.729Z,36.97
2017-10-09T23:47:39.666Z,39.45
2017-10-09T23:50:07.214Z,40.25
2017-10-09T23:52:34.766Z,36.25
2017-10-09T23:55:02.304Z,36.20
2017-10-09T23:57:29.875Z,35.22
2017-10-09T23:59:57.409Z,34.40
